Time;durP1;ratioP1;P1;durP2;ratioP2;P2;SDS_P1;SDS_P2;PMS_P1;PMS_P2;Temp;Humidity;BMP_temperature;BMP_pressure;BME280_temperature;BME280_humidity;BME280_pressure;Samples;Min_cycle;Max_cycle;Signal;HPM_P1;HPM_P2
2021/09/22 06:00:46;;;;;;;54.60;28.70;;;11.90;99.90;;;;;;5546661;23;21023;-94
2021/09/22 06:03:13;;;;;;;39.72;24.90;;;11.90;99.90;;;;;;4977212;28;20023;-92
2021/09/22 06:05:41;;;;;;;57.33;31.42;;;11.80;99.90;;;;;;4978166;28;20047;-95
2021/09/22 06:08:08;;;;;;;38.83;25.88;;;11.80;99.90;;;;;;4979481;28;20070;-90
2021/09/22 06:10:37;;;;;;;38.05;24.92;;;11.80;99.90;;;;;;4979696;28;20078;-96
2021/09/22 06:13:04;;;;;;;39.35;25.27;;;11.80;99.90;;;;;;4961967;28;20054;-95
2021/09/22 06:15:32;;;;;;;39.35;24.90;;;11.80;99.90;;;;;;4973871;28;20049;-92
2021/09/22 06:17:59;;;;;;;54.22;30.25;;;11.80;99.90;;;;;;4943558;29;20142;-89
2021/09/22 06:20:26;;;;;;;38.75;24.77;;;11.80;99.90;;;;;;4945813;29;20047;-89
2021/09/22 06:22:53;;;;;;;52.35;29.75;;;11.90;99.90;;;;;;4955069;29;20039;-89
2021/09/22 06:25:20;;;;;;;40.50;24.35;;;11.90;99.90;;;;;;4935278;29;20078;-89
2021/09/22 06:27:47;;;;;;;46.30;27.77;;;11.90;99.90;;;;;;4935133;29;20043;-89
2021/09/22 06:30:14;;;;;;;32.45;22.85;;;11.90;99.90;;;;;;4952266;29;20110;-89
2021/09/22 06:32:42;;;;;;;53.05;29.65;;;12.00;99.90;;;;;;4955346;29;20054;-89
2021/09/22 06:35:10;;;;;;;30.10;22.60;;;12.00;99.90;;;;;;4954438;29;20074;-89
2021/09/22 06:37:37;;;;;;;;;;;12.00;99.90;;;;;;4954518;29;20074;-90
2021/09/22 06:40:05;;;;;;;51.35;28.33;;;12.10;99.90;;;;;;4936891;29;19927;-89
2021/09/22 06:42:32;;;;;;;35.08;23.25;;;12.10;99.90;;;;;;4953544;29;20039;-89
2021/09/22 06:45:00;;;;;;;33.67;23.52;;;12.10;99.90;;;;;;4954149;29;20141;-89
2021/09/22 06:47:27;;;;;;;33.67;23.02;;;12.20;99.90;;;;;;4953272;29;20110;-89
2021/09/22 06:49:54;;;;;;;31.02;23.15;;;12.20;99.90;;;;;;4954155;29;20539;-90
2021/09/22 06:52:22;;;;;;;34.08;23.48;;;12.20;99.90;;;;;;4936119;29;20051;-89
2021/09/22 06:54:48;;;;;;;33.67;22.50;;;12.20;99.90;;;;;;4953312;28;20043;-89
2021/09/22 06:57:15;;;;;;;50.28;28.88;;;12.30;99.90;;;;;;4936496;29;20051;-88
2021/09/22 06:59:42;;;;;;;32.70;23.23;;;12.30;99.90;;;;;;4924826;29;20048;-88
2021/09/22 07:02:09;;;;;;;31.23;23.63;;;12.40;99.90;;;;;;4933421;29;20115;-88
2021/09/22 07:04:37;;;;;;;27.52;22.17;;;12.40;99.90;;;;;;4934132;29;20047;-90
2021/09/22 07:07:04;;;;;;;29.90;22.08;;;12.40;99.90;;;;;;4927676;29;20075;-89
2021/09/22 07:09:31;;;;;;;31.25;23.17;;;12.50;99.90;;;;;;4926670;29;20048;-90
2021/09/22 07:11:58;;;;;;;25.50;21.77;;;12.50;99.90;;;;;;4934867;29;20059;-89
2021/09/22 07:14:25;;;;;;;27.98;21.30;;;12.60;99.90;;;;;;4916697;29;20076;-90
2021/09/22 07:16:52;;;;;;;27.73;22.52;;;12.60;99.90;;;;;;4917033;29;20075;-91
2021/09/22 07:19:19;;;;;;;29.48;22.08;;;12.70;99.90;;;;;;4916748;29;20048;-89
2021/09/22 07:21:46;;;;;;;25.88;21.27;;;12.70;99.90;;;;;;4934154;29;20075;-89
2021/09/22 07:24:13;;;;;;;27.40;21.73;;;12.80;99.90;;;;;;4916976;29;20052;-90
2021/09/22 07:26:40;;;;;;;29.35;20.00;;;12.80;99.90;;;;;;4934412;29;20094;-90
2021/09/22 07:29:08;;;;;;;37.45;22.35;;;12.80;99.90;;;;;;4933001;29;20460;-88
2021/09/22 07:31:36;;;;;;;25.85;20.60;;;12.90;99.90;;;;;;4933031;29;20106;-91
2021/09/22 07:34:03;;;;;;;27.42;21.98;;;13.00;99.90;;;;;;4916753;29;20040;-89
2021/09/22 07:36:31;;;;;;;27.45;21.58;;;13.10;99.90;;;;;;4908423;29;20047;-92
2021/09/22 07:38:58;;;;;;;26.83;20.75;;;13.10;99.90;;;;;;4933461;29;20067;-89
2021/09/22 07:41:25;;;;;;;25.33;20.52;;;13.10;99.90;;;;;;4931892;29;20052;-89
2021/09/22 07:43:52;;;;;;;23.92;20.63;;;13.20;99.90;;;;;;4933926;29;20476;-89
2021/09/22 07:46:19;;;;;;;23.67;21.20;;;13.30;99.90;;;;;;4931019;29;20099;-90
2021/09/22 07:48:46;;;;;;;21.75;19.13;;;13.40;99.90;;;;;;4916149;29;20047;-89
2021/09/22 07:51:14;;;;;;;23.65;19.73;;;13.50;99.90;;;;;;4932456;29;20539;-90
2021/09/22 07:53:40;;;;;;;25.60;20.35;;;13.60;99.90;;;;;;4932855;29;20052;-89
2021/09/22 07:56:07;;;;;;;25.63;19.38;;;13.60;99.90;;;;;;4924797;29;20127;-89
2021/09/22 07:58:34;;;;;;;23.58;20.58;;;13.70;99.90;;;;;;4933526;29;20103;-89
2021/09/22 08:01:02;;;;;;;27.27;20.25;;;13.80;99.90;;;;;;4932194;29;20552;-90
2021/09/22 08:03:29;;;;;;;23.77;20.17;;;13.90;99.90;;;;;;4932456;29;20054;-90
2021/09/22 08:05:56;;;;;;;26.63;20.83;;;14.10;99.90;;;;;;4945708;28;20043;-90
2021/09/22 08:08:23;;;;;;;23.00;20.20;;;14.20;99.90;;;;;;4932016;29;20068;-90
2021/09/22 08:10:50;;;;;;;22.25;19.88;;;14.20;99.90;;;;;;4940838;29;20043;-90
2021/09/22 08:13:17;;;;;;;27.10;20.85;;;14.40;99.90;;;;;;4940864;29;20055;-91
2021/09/22 08:15:44;;;;;;;26.33;19.75;;;14.40;99.90;;;;;;4951005;29;20055;-91
2021/09/22 08:18:11;;;;;;;22.20;19.70;;;14.50;99.90;;;;;;4922253;29;20579;-90
2021/09/22 08:20:38;;;;;;;21.23;18.92;;;14.60;99.90;;;;;;4939995;29;20120;-90
2021/09/22 08:23:04;;;;;;;20.27;18.15;;;14.70;99.90;;;;;;4939710;29;20520;-92
2021/09/22 08:25:32;;;;;;;21.35;19.02;;;14.80;99.90;;;;;;4923342;29;20087;-90
2021/09/22 08:28:00;;;;;;;23.15;19.35;;;14.90;99.90;;;;;;4938730;29;20047;-91
2021/09/22 08:30:27;;;;;;;23.90;19.48;;;15.00;99.90;;;;;;4936317;29;20078;-90
2021/09/22 08:32:54;;;;;;;21.17;19.00;;;15.10;99.90;;;;;;4923508;29;20055;-91
2021/09/22 08:35:21;;;;;;;25.10;19.65;;;15.20;99.90;;;;;;4948986;29;20047;-90
2021/09/22 08:37:48;;;;;;;22.88;20.52;;;15.30;99.90;;;;;;4945548;29;20093;-92
2021/09/22 08:40:15;;;;;;;21.33;19.02;;;15.50;99.90;;;;;;4940126;29;20066;-90
2021/09/22 08:42:42;;;;;;;21.10;18.15;;;15.50;99.90;;;;;;4936582;29;20055;-91
2021/09/22 08:45:11;;;;;;;20.88;18.70;;;15.60;99.90;;;;;;4938679;29;20051;-91
2021/09/22 08:47:44;;;;;;;21.55;19.20;;;15.70;99.90;;;;;;4951131;29;20058;-89
2021/09/22 08:50:14;;;;;;;21.45;19.20;;;15.80;99.90;;;;;;4925200;29;20060;-89
2021/09/22 08:52:44;;;;;;;22.63;20.23;;;15.90;99.90;;;;;;4923186;29;20067;-90
2021/09/22 08:55:12;;;;;;;21.35;18.88;;;16.00;99.90;;;;;;4938983;29;20138;-89
2021/09/22 08:57:39;;;;;;;21.10;18.88;;;16.10;99.90;;;;;;4950402;29;20456;-89
2021/09/22 09:00:09;;;;;;;22.42;18.83;;;16.30;99.90;;;;;;4938686;29;20099;-89
2021/09/22 09:02:40;;;;;;;21.05;18.95;;;16.40;99.90;;;;;;4947514;29;20094;-89
2021/09/22 09:05:14;;;;;;;23.00;19.52;;;16.50;99.90;;;;;;4936908;29;20054;-89
2021/09/22 09:07:54;;;;;;;21.17;18.85;;;16.60;99.90;;;;;;4947574;29;20051;-90
2021/09/22 09:10:28;;;;;;;22.95;18.80;;;16.80;99.90;;;;;;4953591;29;20098;-90
2021/09/22 09:13:07;;;;;;;20.55;18.35;;;16.90;99.90;;;;;;4954578;29;20047;-89
2021/09/22 09:15:45;;;;;;;19.73;17.67;;;17.10;99.90;;;;;;4954077;29;20514;-89
2021/09/22 09:18:23;;;;;;;20.65;18.45;;;17.10;99.90;;;;;;4953119;28;20047;-90
2021/09/22 09:20:53;;;;;;;20.25;18.20;;;17.30;99.90;;;;;;4952850;29;20123;-90
2021/09/22 09:23:22;;;;;;;18.15;16.45;;;17.40;99.90;;;;;;4953208;29;20118;-91
2021/09/22 09:25:57;;;;;;;19.90;18.02;;;17.40;99.90;;;;;;4954679;29;20051;-90
2021/09/22 09:28:25;;;;;;;20.33;18.42;;;17.50;99.90;;;;;;4953346;29;20051;-89
2021/09/22 09:30:57;;;;;;;18.95;17.13;;;17.60;99.90;;;;;;4953676;29;20053;-89
2021/09/22 09:33:45;;;;;;;17.88;16.00;;;17.60;99.90;;;;;;4935952;29;20476;-90
2021/09/22 09:36:32;;;;;;;20.40;18.50;;;17.70;99.90;;;;;;4950568;29;20048;-90
2021/09/22 09:39:23;;;;;;;18.73;16.92;;;17.80;99.90;;;;;;4938150;29;20107;-89
2021/09/22 09:41:56;;;;;;;19.83;16.70;;;17.90;99.90;;;;;;4951450;29;20129;-89
2021/09/22 09:44:26;;;;;;;19.48;17.58;;;18.00;99.90;;;;;;4952792;29;20510;-87
2021/09/22 09:47:04;;;;;;;20.10;17.73;;;17.90;99.90;;;;;;4932779;29;20566;-90
2021/09/22 09:49:32;;;;;;;19.50;17.63;;;18.00;99.90;;;;;;4952840;29;20047;-90
2021/09/22 09:52:00;;;;;;;20.63;18.42;;;18.10;99.90;;;;;;4953841;29;20094;-91
2021/09/22 09:54:32;;;;;;;20.42;18.42;;;18.10;99.90;;;;;;4936054;29;20098;-94
2021/09/22 09:57:11;;;;;;;19.35;17.33;;;18.10;99.90;;;;;;4953960;29;20051;-88
2021/09/22 09:59:44;;;;;;;19.88;18.02;;;18.10;99.90;;;;;;4952114;29;20575;-91
2021/09/22 10:02:44;;;;;;;21.45;19.35;;;18.20;99.90;;;;;;4931519;29;20125;-90
2021/09/22 10:05:11;;;;;;;22.40;20.10;;;18.30;99.90;;;;;;4889203;29;20071;-90
2021/09/22 10:07:39;;;;;;;21.58;19.38;;;18.30;99.90;;;;;;4890889;29;20515;-93
2021/09/22 10:10:07;;;;;;;22.50;20.33;;;18.30;99.90;;;;;;4894283;29;20052;-85
2021/09/22 10:12:37;;;;;;;21.67;19.38;;;18.40;99.90;;;;;;4864627;29;20056;-88
2021/09/22 10:15:05;;;;;;;21.55;18.00;;;18.40;99.90;;;;;;4890911;29;20100;-91
2021/09/22 10:17:33;;;;;;;22.73;20.35;;;18.50;99.90;;;;;;4894646;29;20056;-88
2021/09/22 10:20:01;;;;;;;22.92;20.20;;;18.60;99.90;;;;;;4894161;29;20056;-88
2021/09/22 10:22:29;;;;;;;23.67;21.17;;;18.60;99.90;;;;;;4875593;29;20165;-88
2021/09/22 10:24:56;;;;;;;23.38;20.38;;;18.70;99.90;;;;;;4864444;29;20053;-88
2021/09/22 10:27:24;;;;;;;25.02;22.30;;;18.70;99.90;;;;;;4876615;29;20088;-90
2021/09/22 10:29:56;;;;;;;24.38;21.85;;;18.70;99.90;;;;;;4894658;29;20148;-95
2021/09/22 10:32:33;;;;;;;23.13;20.83;;;18.80;99.90;;;;;;4889643;29;20441;-91
2021/09/22 10:35:26;;;;;;;23.30;20.80;;;18.80;99.90;;;;;;4889568;29;20876;-89
2021/09/22 10:38:20;;;;;;;21.38;19.20;;;18.80;99.90;;;;;;4889502;29;20498;-88
2021/09/22 10:40:52;;;;;;;22.73;20.42;;;18.90;99.90;;;;;;4898193;29;20074;-89
2021/09/22 10:43:23;;;;;;;21.55;19.45;;;19.00;99.90;;;;;;4947744;29;20051;-88
2021/09/22 10:45:59;;;;;;;22.33;19.95;;;19.00;99.90;;;;;;4953013;29;20047;-89
2021/09/22 10:48:27;;;;;;;22.85;20.55;;;19.00;99.90;;;;;;4933041;29;20073;-91
2021/09/22 10:50:55;;;;;;;21.52;19.23;;;18.90;99.90;;;;;;4907252;29;20052;-89
2021/09/22 10:53:31;;;;;;;;;;;18.90;99.90;;;;;;4934069;29;20079;-88
2021/09/22 10:56:25;;;;;;;20.85;18.75;;;18.90;99.90;;;;;;4947413;29;19934;-91
2021/09/22 10:59:02;;;;;;;20.02;17.88;;;19.00;99.90;;;;;;4921545;29;20047;-90
2021/09/22 11:01:32;;;;;;;19.25;17.25;;;19.10;99.90;;;;;;4930009;29;20103;-89
2021/09/22 11:04:11;;;;;;;19.45;17.45;;;19.30;99.90;;;;;;4921720;29;20519;-91
2021/09/22 11:09:28;;;;;;;20.70;16.77;;;19.50;99.90;;;;;;4918444;29;20548;-88
2021/09/22 11:11:55;;;;;;;19.40;17.33;;;19.60;99.90;;;;;;4926346;29;20058;-90
2021/09/22 11:14:48;;;;;;;17.15;15.45;;;19.60;99.90;;;;;;4933251;29;20443;-90
2021/09/22 11:17:18;;;;;;;17.77;15.98;;;19.70;99.90;;;;;;4925834;29;20072;-90
2021/09/22 11:19:50;;;;;;;16.83;15.10;;;19.80;99.90;;;;;;4916527;29;20048;-90
2021/09/22 11:22:20;;;;;;;15.55;13.57;;;19.80;99.90;;;;;;4928702;29;20496;-90
2021/09/22 11:24:49;;;;;;;12.88;11.57;;;19.90;99.90;;;;;;4921402;29;20055;-89
2021/09/22 11:27:18;;;;;;;14.90;13.07;;;19.90;99.90;;;;;;4920628;29;20351;-91
2021/09/22 11:29:48;;;;;;;15.90;14.40;;;19.90;99.90;;;;;;4911094;29;20516;-91
2021/09/22 11:32:43;;;;;;;14.25;12.88;;;20.00;99.90;;;;;;4915967;29;20512;-91
2021/09/22 11:35:12;;;;;;;15.13;13.63;;;20.00;99.90;;;;;;4915213;29;20078;-90
2021/09/22 11:37:40;;;;;;;14.68;13.27;;;20.00;99.90;;;;;;4922285;29;20115;-91
2021/09/22 11:40:25;;;;;;;13.57;12.20;;;20.00;99.90;;;;;;4921615;29;20048;-90
2021/09/22 11:42:55;;;;;;;13.85;12.48;;;20.10;99.90;;;;;;4911019;29;20047;-95
2021/09/22 11:45:27;;;;;;;13.35;12.15;;;20.10;99.90;;;;;;4918249;29;20051;-93
2021/09/22 11:47:54;;;;;;;12.85;11.45;;;20.10;99.90;;;;;;4924107;29;20052;-90
2021/09/22 11:50:34;;;;;;;13.00;11.80;;;20.10;99.90;;;;;;4921326;29;20044;-90
2021/09/22 11:53:05;;;;;;;12.05;10.95;;;20.20;99.90;;;;;;4925957;29;20045;-91
2021/09/22 11:55:32;;;;;;;13.63;12.27;;;20.30;99.90;;;;;;4916621;29;20037;-90
2021/09/22 11:58:14;;;;;;;13.55;12.00;;;20.30;99.90;;;;;;4915497;29;20051;-91
2021/09/22 12:00:43;;;;;;;13.48;12.18;;;20.40;99.90;;;;;;4921996;29;20107;-91
2021/09/22 12:03:11;;;;;;;;;;;20.40;99.90;;;;;;4918368;29;20082;-93
2021/09/22 12:05:40;;;;;;;14.70;13.05;;;20.40;99.90;;;;;;4936677;29;20471;-90
2021/09/22 12:08:07;;;;;;;14.35;12.75;;;20.50;99.90;;;;;;4934312;29;20047;-90
2021/09/22 12:10:40;;;;;;;14.00;12.57;;;20.50;99.90;;;;;;4936079;29;20048;-91
2021/09/22 12:13:07;;;;;;;13.90;12.55;;;20.60;99.90;;;;;;4935676;29;20094;-93
2021/09/22 12:15:35;;;;;;;13.80;12.52;;;20.50;99.90;;;;;;4921472;29;20532;-90
2021/09/22 12:18:02;;;;;;;13.13;11.93;;;20.50;99.90;;;;;;4936909;29;20048;-90
2021/09/22 12:20:33;;;;;;;13.68;12.48;;;20.50;99.90;;;;;;4933975;29;20094;-94
2021/09/22 12:23:06;;;;;;;13.00;11.65;;;20.60;99.90;;;;;;4933129;29;20402;-95
2021/09/22 12:25:35;;;;;;;12.60;11.30;;;20.60;99.90;;;;;;4933546;29;20102;-92
2021/09/22 12:28:04;;;;;;;17.08;11.45;;;20.60;99.90;;;;;;4937271;29;20043;-90
2021/09/22 12:30:36;;;;;;;13.48;11.18;;;20.70;99.90;;;;;;4935701;29;20501;-93
2021/09/22 12:33:08;;;;;;;12.38;11.00;;;20.80;99.90;;;;;;4937475;29;20057;-91
2021/09/22 12:35:38;;;;;;;12.90;11.70;;;20.80;99.90;;;;;;4933227;28;20051;-90
2021/09/22 12:38:08;;;;;;;12.55;11.40;;;20.90;99.90;;;;;;4908564;29;20051;-91
2021/09/22 12:40:37;;;;;;;12.25;10.60;;;20.90;99.90;;;;;;4920156;29;20051;-92
2021/09/22 12:43:20;;;;;;;;;;;20.90;99.90;;;;;;4920721;29;20056;-93
2021/09/22 12:45:47;;;;;;;11.65;10.55;;;20.90;99.90;;;;;;4911691;29;19950;-91
2021/09/22 12:48:41;;;;;;;11.00;9.93;;;21.00;99.90;;;;;;4911203;29;20044;-92
2021/09/22 12:51:20;;;;;;;11.68;10.57;;;21.00;99.90;;;;;;4928412;29;20129;-92
2021/09/22 12:53:49;;;;;;;10.88;9.88;;;21.10;99.90;;;;;;4910811;29;20051;-93
2021/09/22 12:56:20;;;;;;;11.55;10.25;;;21.10;99.90;;;;;;4935353;29;20438;-91
2021/09/22 12:58:47;;;;;;;11.10;9.95;;;21.10;99.90;;;;;;4933237;29;20080;-90
2021/09/22 13:01:15;;;;;;;10.23;9.23;;;21.10;99.90;;;;;;4909408;29;20536;-92
2021/09/22 13:03:44;;;;;;;;;;;21.20;99.90;;;;;;4940487;29;20051;-94
2021/09/22 13:06:19;;;;;;;10.43;9.32;;;21.20;99.90;;;;;;4945830;29;20018;-92
2021/09/22 13:08:52;;;;;;;11.40;10.30;;;21.30;99.90;;;;;;4952939;29;20039;-94
2021/09/22 13:11:27;;;;;;;11.07;9.98;;;21.20;99.90;;;;;;4935337;29;20055;-92
2021/09/22 13:14:13;;;;;;;10.63;9.60;;;21.20;99.90;;;;;;4948482;29;20044;-92
2021/09/22 13:16:56;;;;;;;9.52;8.50;;;21.30;99.90;;;;;;4922732;29;20147;-92
2021/09/22 13:19:25;;;;;;;9.55;8.75;;;21.30;99.90;;;;;;4953546;28;20067;-90
2021/09/22 13:21:55;;;;;;;9.77;8.68;;;21.30;99.90;;;;;;4959635;29;20066;-92
2021/09/22 13:24:23;;;;;;;11.40;8.93;;;21.40;99.90;;;;;;4955656;29;20110;-91
2021/09/22 13:26:55;;;;;;;9.00;8.20;;;21.40;99.90;;;;;;4952748;29;20551;-92
2021/09/22 13:29:24;;;;;;;10.32;9.40;;;21.40;99.90;;;;;;4935943;29;20468;-93
2021/09/22 13:31:56;;;;;;;8.27;7.10;;;21.50;99.90;;;;;;4929950;29;20071;-92
2021/09/22 13:34:27;;;;;;;8.55;7.65;;;21.50;99.90;;;;;;4928737;29;20490;-91
2021/09/22 13:36:59;;;;;;;8.52;7.45;;;21.60;99.90;;;;;;4945566;29;20081;-93
2021/09/22 13:39:27;;;;;;;9.27;8.38;;;21.60;99.90;;;;;;4942278;29;20051;-92
2021/09/22 13:41:55;;;;;;;8.43;7.38;;;21.70;99.90;;;;;;4941467;29;20051;-91
2021/09/22 13:44:21;;;;;;;9.63;8.73;;;21.70;99.90;;;;;;4943089;29;20520;-92
2021/09/22 13:46:49;;;;;;;8.60;7.80;;;21.80;99.90;;;;;;4943504;29;20048;-93
2021/09/22 13:49:20;;;;;;;9.27;8.37;;;21.80;99.90;;;;;;4940546;29;20047;-91
2021/09/22 13:51:49;;;;;;;7.97;7.28;;;21.90;99.90;;;;;;4945439;29;20298;-91
2021/09/22 13:54:17;;;;;;;8.65;7.78;;;21.90;99.90;;;;;;4943628;29;20051;-84
2021/09/22 13:56:45;;;;;;;9.90;9.00;;;22.00;99.90;;;;;;4954261;29;20087;-92
2021/09/22 13:59:13;;;;;;;11.07;9.95;;;22.00;99.90;;;;;;4943348;29;20051;-92
2021/09/22 14:01:40;;;;;;;10.55;9.55;;;22.00;99.90;;;;;;4944932;28;20055;-90
2021/09/22 14:04:12;;;;;;;10.02;9.02;;;22.00;99.90;;;;;;4953120;28;20071;-89
2021/09/22 14:06:40;;;;;;;11.52;9.60;;;22.00;99.90;;;;;;4953209;28;20048;-91
2021/09/22 14:09:07;;;;;;;10.38;9.35;;;22.00;99.90;;;;;;4937250;29;20093;-90
2021/09/22 14:11:34;;;;;;;8.95;8.15;;;22.00;99.90;;;;;;4935572;29;20055;-92
2021/09/22 14:14:06;;;;;;;10.52;9.43;;;22.00;99.90;;;;;;4933586;29;20054;-90
2021/09/22 14:16:34;;;;;;;10.57;9.57;;;22.10;99.90;;;;;;4947029;29;20070;-90
2021/09/22 14:19:02;;;;;;;10.57;9.57;;;22.10;99.90;;;;;;4954178;29;20055;-91
2021/09/22 14:21:29;;;;;;;10.02;9.13;;;22.10;99.90;;;;;;4954376;29;20114;-92
2021/09/22 14:23:56;;;;;;;8.75;7.90;;;22.10;99.90;;;;;;4938367;29;20518;-94
2021/09/22 14:26:23;;;;;;;9.75;8.85;;;22.20;99.90;;;;;;4916011;29;20055;-93
2021/09/22 14:28:51;;;;;;;10.43;9.43;;;22.20;99.90;;;;;;4930304;29;20047;-92
2021/09/22 14:31:18;;;;;;;10.38;9.32;;;22.20;99.90;;;;;;4954916;29;20098;-93
2021/09/22 14:33:45;;;;;;;11.40;10.10;;;22.10;99.90;;;;;;4939676;29;20115;-83
2021/09/22 14:36:13;;;;;;;10.98;9.88;;;22.00;99.90;;;;;;4945675;29;20052;-89
2021/09/22 14:38:40;;;;;;;10.77;9.77;;;21.90;99.90;;;;;;4939579;29;20075;-90
2021/09/22 14:41:06;;;;;;;11.20;10.05;;;21.80;99.90;;;;;;4943506;29;20047;-90
2021/09/22 14:43:34;;;;;;;9.40;8.52;;;21.70;99.90;;;;;;4927650;29;20114;-90
2021/09/22 14:46:02;;;;;;;9.90;9.00;;;21.60;99.90;;;;;;4941692;29;20547;-90
2021/09/22 14:48:29;;;;;;;10.38;9.27;;;21.60;99.90;;;;;;4928189;29;20455;-91
2021/09/22 14:50:56;;;;;;;10.35;9.35;;;21.60;99.90;;;;;;4944325;29;20058;-90
2021/09/22 14:53:24;;;;;;;9.93;9.02;;;21.40;99.90;;;;;;4928964;29;20153;-89
2021/09/22 14:55:53;;;;;;;9.90;9.02;;;21.40;99.90;;;;;;4927007;29;20461;-90
2021/09/22 14:58:20;;;;;;;9.82;8.90;;;21.30;99.90;;;;;;4926014;29;20062;-90
2021/09/22 15:00:48;;;;;;;10.55;9.50;;;21.30;99.90;;;;;;4944433;29;20043;-89
2021/09/22 15:03:15;;;;;;;10.10;9.07;;;21.30;99.90;;;;;;4937360;29;20141;-89
2021/09/22 15:05:42;;;;;;;9.90;9.00;;;21.30;99.90;;;;;;4930583;29;20055;-89
2021/09/22 15:08:09;;;;;;;10.80;9.80;;;21.30;99.90;;;;;;4926557;29;20055;-89
2021/09/22 15:10:37;;;;;;;10.20;9.15;;;21.30;99.90;;;;;;4925415;29;20118;-89
2021/09/22 15:13:04;;;;;;;9.45;8.55;;;21.30;99.90;;;;;;4944501;29;20590;-89
2021/09/22 15:15:31;;;;;;;10.38;9.15;;;21.30;99.90;;;;;;4941810;28;20188;-90
2021/09/22 15:18:00;;;;;;;9.93;9.00;;;21.40;99.90;;;;;;4925509;29;20052;-90
2021/09/22 15:20:29;;;;;;;9.98;8.70;;;21.40;99.90;;;;;;4927127;29;20400;-90
2021/09/22 15:22:56;;;;;;;9.43;8.63;;;21.40;99.90;;;;;;4937938;29;20100;-90
2021/09/22 15:25:23;;;;;;;10.25;9.25;;;21.50;99.90;;;;;;4927421;29;20047;-90
2021/09/22 15:27:50;;;;;;;9.85;8.95;;;21.50;99.90;;;;;;4928103;29;20051;-89
2021/09/22 15:30:19;;;;;;;10.05;9.15;;;21.60;99.90;;;;;;4925570;29;20532;-90
2021/09/22 15:32:47;;;;;;;9.40;8.50;;;21.60;99.90;;;;;;4934827;29;20044;-89
2021/09/22 15:35:17;;;;;;;9.85;8.77;;;21.60;99.90;;;;;;4923955;29;20048;-89
2021/09/22 15:37:44;;;;;;;;;;;21.60;99.90;;;;;;4944659;29;20071;-90
2021/09/22 15:40:14;;;;;;;10.98;9.18;;;21.50;99.90;;;;;;4925063;29;19922;-91
2021/09/22 15:42:42;;;;;;;9.55;8.60;;;21.50;99.90;;;;;;4936230;29;20047;-91
2021/09/22 15:45:12;;;;;;;10.10;9.18;;;21.60;99.90;;;;;;4929037;29;20059;-90
2021/09/22 15:47:44;;;;;;;8.73;7.88;;;21.60;99.90;;;;;;4943927;29;20054;-90
2021/09/22 15:50:12;;;;;;;10.23;9.23;;;21.60;99.90;;;;;;4943630;29;20044;-90
2021/09/22 15:52:39;;;;;;;9.93;8.93;;;21.50;99.90;;;;;;4939499;29;20484;-90
2021/09/22 15:55:06;;;;;;;10.20;9.30;;;21.50;99.90;;;;;;4932624;29;20071;-89
2021/09/22 15:57:34;;;;;;;11.80;10.25;;;21.60;99.90;;;;;;4938725;29;20075;-91
2021/09/22 16:00:04;;;;;;;11.18;10.18;;;21.50;99.90;;;;;;4928816;29;20103;-92
2021/09/22 16:02:32;;;;;;;12.13;9.43;;;21.40;99.90;;;;;;4954141;28;20086;-93
2021/09/22 16:04:59;;;;;;;10.97;9.87;;;21.30;99.90;;;;;;4958753;29;20075;-94
2021/09/22 16:07:29;;;;;;;11.48;10.32;;;21.30;99.90;;;;;;4948191;29;20055;-94
2021/09/22 16:09:56;;;;;;;10.20;9.30;;;21.30;99.90;;;;;;4943865;29;20409;-94
2021/09/22 16:12:23;;;;;;;11.30;10.15;;;21.20;99.90;;;;;;4962554;29;20058;-93
2021/09/22 16:15:11;;;;;;;11.75;10.27;;;21.20;99.90;;;;;;4938566;29;20138;-94
2021/09/22 16:17:39;;;;;;;11.20;10.20;;;21.20;99.90;;;;;;4934600;29;20055;-94
2021/09/22 16:20:17;;;;;;;11.40;10.30;;;21.20;99.90;;;;;;4956334;29;20052;-96
2021/09/22 16:22:46;;;;;;;12.07;10.73;;;21.10;99.90;;;;;;5534825;23;20043;-82
2021/09/22 16:25:13;;;;;;;10.50;9.48;;;21.10;99.90;;;;;;4927069;28;20047;-81
2021/09/22 16:27:40;;;;;;;10.75;9.63;;;21.20;99.90;;;;;;4949116;28;20110;-83
2021/09/22 16:30:08;;;;;;;10.70;9.70;;;21.20;99.90;;;;;;4952935;29;20043;-82
2021/09/22 16:32:36;;;;;;;11.83;10.03;;;21.20;99.90;;;;;;4936127;29;20051;-82
2021/09/22 16:35:05;;;;;;;10.60;9.68;;;21.20;99.90;;;;;;4952802;29;20075;-81
2021/09/22 16:37:32;;;;;;;10.18;9.27;;;21.20;99.90;;;;;;4952327;29;20079;-81
2021/09/22 16:39:59;;;;;;;11.85;9.25;;;21.30;99.90;;;;;;4952704;29;20059;-81
2021/09/22 16:42:42;;;;;;;11.18;10.02;;;21.30;99.90;;;;;;4938456;29;20051;-81
2021/09/22 16:45:11;;;;;;;13.77;9.50;;;21.30;99.90;;;;;;4952530;29;20590;-81
2021/09/22 16:47:38;;;;;;;10.70;9.48;;;21.30;99.90;;;;;;4952819;29;20059;-82
2021/09/22 16:50:06;;;;;;;12.77;10.75;;;21.20;99.90;;;;;;4950795;29;20457;-83
2021/09/22 16:52:32;;;;;;;11.50;10.50;;;21.20;99.90;;;;;;4946770;28;20051;-83
2021/09/22 16:55:00;;;;;;;12.50;11.25;;;21.00;99.90;;;;;;4950836;29;20549;-83
2021/09/22 16:57:27;;;;;;;11.50;10.32;;;20.90;99.90;;;;;;4950744;29;20058;-82
2021/09/22 16:59:54;;;;;;;12.05;10.88;;;20.70;99.90;;;;;;4951356;29;20087;-82
2021/09/22 17:02:21;;;;;;;11.32;10.15;;;20.70;99.90;;;;;;4949278;29;20047;-82
2021/09/22 17:04:50;;;;;;;12.30;11.10;;;20.60;99.90;;;;;;4949224;29;20043;-83
2021/09/22 17:07:40;;;;;;;12.30;11.25;;;20.50;99.90;;;;;;4947725;29;20035;-83
2021/09/22 17:10:09;;;;;;;12.43;11.25;;;20.50;99.90;;;;;;4931601;29;20047;-83
2021/09/22 17:12:37;;;;;;;13.35;11.50;;;20.30;99.90;;;;;;4949954;29;20055;-83
2021/09/22 17:15:05;;;;;;;12.65;11.45;;;20.30;99.90;;;;;;4949885;29;20499;-82
2021/09/22 17:17:32;;;;;;;12.57;11.43;;;20.20;99.90;;;;;;4948793;29;20420;-82
2021/09/22 17:19:59;;;;;;;12.48;11.20;;;20.10;99.90;;;;;;4931832;29;20043;-82
2021/09/22 17:22:26;;;;;;;12.18;10.98;;;20.00;99.90;;;;;;4948058;28;20055;-82
2021/09/22 17:24:53;;;;;;;12.63;11.43;;;19.90;99.90;;;;;;4949757;29;20078;-82
2021/09/22 17:27:21;;;;;;;12.88;11.57;;;19.80;99.90;;;;;;4956244;28;20066;-82
2021/09/22 17:29:48;;;;;;;12.27;11.07;;;19.70;99.90;;;;;;4958940;28;20051;-82
2021/09/22 17:32:15;;;;;;;13.40;11.95;;;19.60;99.90;;;;;;4960276;28;20047;-82
2021/09/22 17:34:42;;;;;;;14.20;12.73;;;19.50;99.90;;;;;;4958722;28;20090;-82
2021/09/22 17:37:11;;;;;;;22.00;19.60;;;19.50;99.90;;;;;;4950211;29;20055;-83
2021/09/22 17:39:38;;;;;;;40.63;32.25;;;19.30;99.90;;;;;;4948277;28;20134;-83
2021/09/22 17:42:08;;;;;;;43.65;34.72;;;19.20;99.90;;;;;;4933214;29;20044;-82
2021/09/22 17:44:35;;;;;;;45.13;37.00;;;19.10;99.90;;;;;;4951086;29;20503;-82
2021/09/22 17:47:02;;;;;;;43.55;32.50;;;19.00;99.90;;;;;;4950150;29;20059;-82
2021/09/22 17:49:29;;;;;;;38.03;29.92;;;18.90;99.90;;;;;;4950073;29;20531;-83
2021/09/22 17:51:57;;;;;;;44.28;32.03;;;18.80;99.90;;;;;;4948097;29;20086;-84
2021/09/22 17:54:23;;;;;;;48.25;33.47;;;18.70;99.90;;;;;;4950341;29;20145;-82
2021/09/22 17:56:50;;;;;;;55.42;35.85;;;18.60;99.90;;;;;;4950229;29;20075;-82
2021/09/22 17:59:17;;;;;;;54.60;38.45;;;18.60;99.90;;;;;;4947667;29;20098;-82
2021/09/22 18:01:44;;;;;;;51.17;35.72;;;18.50;99.90;;;;;;4933601;29;20470;-82
2021/09/22 18:04:11;;;;;;;18.52;15.25;;;18.40;99.90;;;;;;4949521;29;20122;-82
2021/09/22 18:06:39;;;;;;;15.63;14.02;;;18.30;99.90;;;;;;4948018;29;20042;-83
2021/09/22 18:09:07;;;;;;;15.00;13.52;;;18.20;99.90;;;;;;4948596;29;20554;-83
2021/09/22 18:11:35;;;;;;;14.77;13.27;;;18.10;99.90;;;;;;4950025;29;20047;-83
2021/09/22 18:14:02;;;;;;;14.43;13.02;;;18.00;99.90;;;;;;4950031;29;20054;-84
2021/09/22 18:16:30;;;;;;;14.38;12.98;;;17.90;99.90;;;;;;4950651;29;20047;-83
2021/09/22 18:18:59;;;;;;;14.43;12.95;;;17.80;99.90;;;;;;4951381;28;20424;-89
2021/09/22 18:21:28;;;;;;;14.68;13.30;;;17.70;99.90;;;;;;4924306;29;20051;-89
2021/09/22 18:23:55;;;;;;;14.73;13.27;;;17.70;99.90;;;;;;4932162;29;20058;-88
2021/09/22 18:26:22;;;;;;;16.92;15.23;;;17.70;99.90;;;;;;4941831;29;20544;-89
2021/09/22 18:28:49;;;;;;;16.58;14.98;;;17.60;99.90;;;;;;4935720;29;20054;-86
2021/09/22 18:31:16;;;;;;;16.25;14.75;;;17.60;99.90;;;;;;4945607;29;20076;-87
2021/09/22 18:33:43;;;;;;;19.30;16.15;;;17.50;99.90;;;;;;4948691;28;20051;-86
2021/09/22 18:36:11;;;;;;;16.83;15.23;;;17.50;99.90;;;;;;4931079;29;20145;-87
2021/09/22 18:38:37;;;;;;;17.10;15.38;;;17.40;99.90;;;;;;4948786;29;20435;-87
2021/09/22 18:41:05;;;;;;;18.25;15.68;;;17.30;99.90;;;;;;4928218;28;20047;-87
2021/09/22 18:43:33;;;;;;;19.08;16.60;;;17.30;99.90;;;;;;4946945;28;20043;-84
2021/09/22 18:46:00;;;;;;;19.98;17.98;;;17.20;99.90;;;;;;4913718;28;20416;-85
2021/09/22 18:48:27;;;;;;;20.33;18.40;;;17.10;99.90;;;;;;4943208;29;20135;-85